• Join FlightAware (Why Join?)
  • Login
  • US Flag 
05:45PM EDT


 

Airport Tracker/Info


-or-


 

Live Flight TrackerFlight Track Log ✈ SKW7398 ✈ 23-Apr-2013 ✈ KSUN - KSLC

Flight Track Log - Related Links

Times and Time Zones

All times are in EDT time to prevent confusion due to time zone crossing. See the SKW7398 flight status page for this flight to view local times or setup timezone preferences in your user account.

Time Position Orientation Groundspeed Altitude Reporting Facility
EDT Latitude Longitude Course Direction KTS MPH feet Rate Location/Type
09:00AM 43.2493 -114.1684 148° Southeast  Level FlightAware Approximate
09:00AM 43.2947 -114.2022 166° South 264 304 11,500  Level Salt Lake Center
09:01AM 43.1881 -114.1159 148° Southeast  Level FlightAware Approximate
09:01AM 43.2328 -114.1567 152° Southeast 243 280 13,000  Level Salt Lake Center
09:02AM 43.1243 -114.0705 160° South  Level FlightAware Approximate
09:02AM 43.1786 -114.1017 143° Southeast 249 287 14,200  Level Salt Lake Center
09:03AM 43.0551 -114.0420 164° South  Level FlightAware Approximate
09:03AM 43.1144 -114.0397 145° Southeast 267 307 15,300  Level Salt Lake Center
09:04AM 42.9858 -114.0143 164° South  Level FlightAware Approximate
09:04AM 43.0531 -113.9800 145° Southeast 280 322 16,100  Level Salt Lake Center
09:05AM 42.9160 -113.9887 166° South  Level FlightAware Approximate
09:05AM 42.9842 -113.9117 144° Southeast 291 335 16,900  Level Salt Lake Center
09:06AM 42.9175 -113.8475 145° Southeast 301 346 17,400 480 Climbing Salt Lake Center
09:07AM 42.8494 -113.7814 145° Southeast 310 357 17,900 360 Climbing Salt Lake Center
09:08AM 42.7694 -113.7056 145° Southeast 314 361 18,200 420 Climbing Salt Lake Center
09:09AM 42.7006 -113.6389 145° Southeast 316 364 18,800 540 Climbing Salt Lake Center
09:10AM 42.6331 -113.5739 145° Southeast 317 365 19,300 480 Climbing Salt Lake Center
09:11AM 42.5594 -113.5039 145° Southeast 322 371 19,800 480 Climbing Salt Lake Center
09:12AM 42.4708 -113.4194 145° Southeast 325 374 20,300 480 Climbing Salt Lake Center
09:13AM 42.3964 -113.3497 145° Southeast 326 375 20,800 300 Climbing Salt Lake Center
09:14AM 42.3208 -113.2792 145° Southeast 329 379 21,000  Climbing Salt Lake Center
09:15AM 42.2428 -113.2058 145° Southeast 337 388 20,800 -540 Descending Salt Lake Center
09:16AM 42.1633 -113.1294 145° Southeast 349 402 20,000 -960 Descending Salt Lake Center
09:17AM 42.0836 -113.0558 146° Southeast 349 402 18,900 -1,140 Descending Salt Lake Center
09:18AM 42.0069 -112.9856 146° Southeast 340 391 17,700 -960 Descending Salt Lake Center
09:19AM 41.9303 -112.9122 145° Southeast 338 389 17,000 -840 Descending Salt Lake Center
09:20AM 41.8522 -112.8428 146° Southeast 336 387 16,100 -900 Descending Salt Lake Center
09:21AM 41.7761 -112.7717 145° Southeast 335 386 15,200 -600 Descending Salt Lake Center
09:22AM 41.7008 -112.7019 145° Southeast 333 383 15,000 -120 Descending Salt Lake Center
09:23AM 41.6347 -112.6311 141° Southeast 312 359 15,000  Level Salt Lake Center
09:24AM 41.5881 -112.5528 129° Southeast 309 356 15,000  Level Salt Lake Center
09:24AM 41.5642 -112.5300 144° Southeast 307 353 15,000  Level Salt Lake Center
09:25AM 41.5364 -112.4842 129° Southeast 310 357 15,000 -300 Level Salt Lake Center
09:25AM 41.4961 -112.4589 155° Southeast 311 358 14,700 -840 Descending Salt Lake Center
09:26AM 41.4592 -112.4275 148° Southeast 323 372 14,200 -900 Descending Salt Lake Center
09:26AM 41.4164 -112.4019 156° South 324 373 13,800 -900 Descending Salt Lake Center
09:27AM 41.3769 -112.3694 148° Southeast 328 377 13,300 -900 Descending Salt Lake Center
09:27AM 41.3372 -112.3431 153° Southeast 326 375 12,900 -840 Descending Salt Lake Center
09:28AM 41.2989 -112.3100 147° Southeast 326 375 12,500 -840 Descending Salt Lake Center
09:28AM 41.2597 -112.2831 153° Southeast 323 372 12,100 -840 Descending Salt Lake Center
09:29AM 41.2208 -112.2508 148° Southeast 321 369 11,700 -780 Descending Salt Lake Center
09:29AM 41.1836 -112.2256 153° Southeast 316 364 11,300 -720 Descending Salt Lake Center
09:30AM 41.1408 -112.1925 150° Southeast 312 359 11,000 -300 Descending Salt Lake Center
09:30AM 41.1106 -112.1711 152° Southeast 305 351 11,000  Level Salt Lake Center
09:31AM 41.0689 -112.1431 153° Southeast 295 339 11,000  Level Salt Lake Center
09:31AM 41.0367 -112.1369 172° South 287 330 11,000  Level Salt Lake Center
09:32AM 40.9883 -112.1275 172° South 288 331 11,000  Level Salt Lake Center
09:32AM 40.9589 -112.1206 170° South 287 330 11,000  Level Salt Lake Center
09:33AM 40.9119 -112.1108 171° South 286 329 11,000  Level Salt Lake Center
09:33AM 40.8656 -112.1014 171° South 286 329 11,000  Level Salt Lake Center
09:34AM 40.8281 -112.0997 178° South 281 323 11,000 -120 Level Salt Lake Center
09:34AM 40.7906 -112.0944 174° South 272 313 10,900 -420 Descending Salt Lake Center
09:35AM 40.7536 -112.0936 179° South 265 305 10,600 -600 Descending Salt Lake Center
09:35AM 40.7200 -112.0889 174° South 255 293 10,300 -660 Descending Salt Lake Center
09:36AM 40.6944 -112.0881 179° South 233 268 10,000 -720 Descending Salt Lake Center
09:36AM 40.6594 -112.0808 171° South 221 254 9,600 -840 Descending Salt Lake Center
09:37AM 40.6281 -112.0794 178° South 217 250 9,100 -840 Descending Salt Lake Center
09:37AM 40.6108 -112.0494 127° Southeast 217 250 8,800 -900 Descending Salt Lake Center
09:38AM 40.6192 -112.0231 67° East 188 216 8,200 -1,380 Descending Salt Lake Center
09:38AM 40.6442 -112.0028 32° Northeast 196 226 7,400 -1,560 Descending Salt Lake Center
09:39AM 40.6631 -111.9942 19° North 191 220 6,800 -1,740 Descending Salt Lake Center